createdAt,value
2016-09-29T00:00:38.063Z,16.68
2016-09-29T00:01:18.607Z,16.68
2016-09-29T00:01:59.150Z,16.7
2016-09-29T00:02:39.695Z,16.73
2016-09-29T00:03:20.236Z,16.67
2016-09-29T00:04:00.782Z,16.76
2016-09-29T00:04:41.325Z,16.7
2016-09-29T00:05:21.873Z,16.7
2016-09-29T00:06:02.416Z,16.68
2016-09-29T00:06:42.955Z,16.68
2016-09-29T00:07:23.499Z,16.71
2016-09-29T00:08:04.042Z,16.66
2016-09-29T00:08:44.593Z,16.73
2016-09-29T00:09:25.136Z,16.68
2016-09-29T00:10:05.676Z,16.76
2016-09-29T00:10:46.226Z,16.68
2016-09-29T00:11:26.764Z,16.68
2016-09-29T00:12:07.314Z,16.71
2016-09-29T00:12:47.859Z,16.73
2016-09-29T00:13:28.402Z,16.66
2016-09-29T00:14:08.950Z,16.67
2016-09-29T00:14:49.495Z,16.63
2016-09-29T00:15:30.042Z,16.64
2016-09-29T00:16:10.585Z,16.7
2016-09-29T00:16:51.126Z,16.67
2016-09-29T00:17:31.663Z,16.71
2016-09-29T00:18:12.207Z,16.67
2016-09-29T00:18:52.755Z,16.73
2016-09-29T00:19:33.301Z,16.66
2016-09-29T00:20:13.832Z,16.64
2016-09-29T00:20:54.379Z,16.71
2016-09-29T00:21:34.924Z,16.67
2016-09-29T00:22:15.468Z,16.63
2016-09-29T00:22:56.014Z,16.7
2016-09-29T00:23:36.562Z,16.61
2016-09-29T00:24:17.110Z,16.64
2016-09-29T00:24:57.654Z,16.57
2016-09-29T00:25:38.200Z,16.57
2016-09-29T00:26:18.746Z,16.58
2016-09-29T00:26:59.293Z,16.56
2016-09-29T00:27:39.834Z,16.67
2016-09-29T00:28:20.378Z,16.53
2016-09-29T00:29:00.924Z,16.6
2016-09-29T00:29:41.461Z,16.58
2016-09-29T00:30:22.002Z,16.61
2016-09-29T00:31:02.556Z,16.57
2016-09-29T00:31:43.089Z,16.57
2016-09-29T00:32:23.636Z,16.61
2016-09-29T00:33:04.180Z,16.53
2016-09-29T00:33:44.716Z,16.52
2016-09-29T00:34:25.262Z,16.57
2016-09-29T00:35:05.800Z,16.6
2016-09-29T00:35:46.345Z,16.56
2016-09-29T00:36:26.891Z,16.57
2016-09-29T00:37:07.434Z,16.68
2016-09-29T00:37:47.985Z,16.57
2016-09-29T00:38:28.528Z,16.52
2016-09-29T00:39:09.076Z,16.57
2016-09-29T00:39:49.626Z,16.53
2016-09-29T00:40:30.171Z,16.57
2016-09-29T00:41:10.711Z,16.6
2016-09-29T00:41:51.259Z,16.57
2016-09-29T00:42:31.810Z,16.64
2016-09-29T00:43:12.359Z,16.48
2016-09-29T00:43:52.903Z,16.6
2016-09-29T00:44:33.447Z,16.61
2016-09-29T00:45:13.993Z,16.6
2016-09-29T00:45:54.540Z,16.56
2016-09-29T00:46:35.088Z,16.53
2016-09-29T00:47:15.621Z,16.5
2016-09-29T00:47:56.161Z,16.48
2016-09-29T00:48:36.707Z,16.56
2016-09-29T00:49:17.254Z,16.41
2016-09-29T00:49:57.798Z,16.48
2016-09-29T00:50:38.342Z,16.5
2016-09-29T00:51:18.886Z,16.52
2016-09-29T00:51:59.431Z,16.43
2016-09-29T00:52:39.973Z,16.46
2016-09-29T00:53:20.509Z,16.45
2016-09-29T00:54:01.057Z,16.45
2016-09-29T00:54:41.602Z,16.48
2016-09-29T00:55:22.148Z,16.48
2016-09-29T00:56:02.679Z,16.46
2016-09-29T00:56:43.215Z,16.42
2016-09-29T00:57:23.751Z,16.42
2016-09-29T00:58:04.286Z,16.39
2016-09-29T00:58:44.828Z,16.42
2016-09-29T00:59:25.382Z,16.43
2016-09-29T01:00:05.916Z,16.25
2016-09-29T01:00:46.462Z,16.3
2016-09-29T01:01:27.009Z,16.33
2016-09-29T01:02:07.562Z,16.33
2016-09-29T01:02:48.107Z,16.25
2016-09-29T01:03:28.647Z,16.34
2016-09-29T01:04:09.174Z,16.23
2016-09-29T01:04:49.703Z,16.27
2016-09-29T01:05:30.233Z,16.25
2016-09-29T01:06:10.780Z,16.3
2016-09-29T01:06:51.321Z,16.25
2016-09-29T01:07:31.869Z,16.17
2016-09-29T01:08:12.413Z,16.27
2016-09-29T01:08:52.951Z,16.23
2016-09-29T01:09:33.493Z,16.24
2016-09-29T01:10:14.046Z,16.27
2016-09-29T01:10:54.591Z,16.17
2016-09-29T01:11:35.132Z,16.25
2016-09-29T01:12:15.672Z,16.24
2016-09-29T01:12:56.211Z,16.15
2016-09-29T01:13:36.743Z,16.12
2016-09-29T01:14:17.290Z,16.11
2016-09-29T01:14:57.827Z,16.17
2016-09-29T01:15:38.370Z,16.17
2016-09-29T01:16:18.920Z,16.12
2016-09-29T01:16:59.465Z,16.17
2016-09-29T01:17:40.003Z,16.08
2016-09-29T01:18:20.528Z,16.11
2016-09-29T01:19:01.067Z,16.12
2016-09-29T01:19:41.597Z,16
2016-09-29T01:20:22.147Z,16.02
2016-09-29T01:21:02.682Z,16.12
2016-09-29T01:21:43.237Z,16.02
2016-09-29T01:22:23.783Z,15.97
2016-09-29T01:23:04.331Z,16.11
2016-09-29T01:23:44.876Z,16.02
2016-09-29T01:24:25.418Z,16.01
2016-09-29T01:25:05.965Z,16.01
2016-09-29T01:25:46.507Z,16.04
2016-09-29T01:26:27.035Z,16
2016-09-29T01:27:07.597Z,15.97
2016-09-29T01:27:48.126Z,16.01
2016-09-29T01:28:28.664Z,15.97
2016-09-29T01:29:09.209Z,15.97
2016-09-29T01:29:49.748Z,16.01
2016-09-29T01:30:30.294Z,15.94
2016-09-29T01:31:10.840Z,15.94
2016-09-29T01:31:51.392Z,15.84
2016-09-29T01:32:31.938Z,15.87
2016-09-29T01:33:12.481Z,15.84
2016-09-29T01:33:53.025Z,15.78
2016-09-29T01:34:33.571Z,15.84
2016-09-29T01:35:14.121Z,15.9
2016-09-29T01:35:54.667Z,15.78
2016-09-29T01:36:35.197Z,15.78
2016-09-29T01:37:15.728Z,15.8
2016-09-29T01:37:56.273Z,15.78
2016-09-29T01:38:36.816Z,15.67
2016-09-29T01:39:17.352Z,15.72
2016-09-29T01:39:57.899Z,15.74
2016-09-29T01:40:38.440Z,15.71
2016-09-29T01:41:18.993Z,15.68
2016-09-29T01:41:59.531Z,15.69
2016-09-29T01:42:40.074Z,15.57
2016-09-29T01:43:20.625Z,15.62
2016-09-29T01:44:01.158Z,15.57
2016-09-29T01:44:41.701Z,15.69
2016-09-29T01:45:22.251Z,15.62
2016-09-29T01:46:02.793Z,15.67
2016-09-29T01:46:43.336Z,15.6
2016-09-29T01:47:23.880Z,15.57
2016-09-29T01:48:04.423Z,15.67
2016-09-29T01:48:44.966Z,15.62
2016-09-29T01:49:25.506Z,15.57
2016-09-29T01:50:06.047Z,15.6
2016-09-29T01:50:46.587Z,15.62
2016-09-29T01:51:27.136Z,15.59
2016-09-29T01:52:07.677Z,15.59
2016-09-29T01:52:48.231Z,15.56
2016-09-29T01:53:28.766Z,15.59
2016-09-29T01:54:09.311Z,15.56
2016-09-29T01:54:49.850Z,15.62
2016-09-29T01:55:30.384Z,15.62
2016-09-29T01:56:10.932Z,15.53
2016-09-29T01:56:51.478Z,15.57
2016-09-29T01:57:32.024Z,15.62
2016-09-29T01:58:12.566Z,15.67
2016-09-29T01:58:53.117Z,15.6
2016-09-29T01:59:33.670Z,15.59
2016-09-29T02:00:14.215Z,15.57
2016-09-29T02:00:54.759Z,15.62
2016-09-29T02:01:35.297Z,15.62
2016-09-29T02:02:15.841Z,15.54
2016-09-29T02:02:56.384Z,15.53
2016-09-29T02:03:36.923Z,15.47
2016-09-29T02:04:17.458Z,15.49
2016-09-29T02:04:58.006Z,15.5
2016-09-29T02:05:38.556Z,15.49
2016-09-29T02:06:19.088Z,15.46
2016-09-29T02:06:59.629Z,15.34
2016-09-29T02:07:40.169Z,15.35
2016-09-29T02:08:20.714Z,15.32
2016-09-29T02:09:01.263Z,15.32
2016-09-29T02:09:41.796Z,15.27
2016-09-29T02:10:22.343Z,15.21
2016-09-29T02:11:02.888Z,15.17
2016-09-29T02:11:43.430Z,15.19
2016-09-29T02:12:23.964Z,15.16
2016-09-29T02:13:04.510Z,15.19
2016-09-29T02:13:45.056Z,15.14
2016-09-29T02:14:25.601Z,15.1
2016-09-29T02:15:06.137Z,15.1
2016-09-29T02:15:46.688Z,15.09
2016-09-29T02:16:27.258Z,15.09
2016-09-29T02:17:07.791Z,15.11
2016-09-29T02:17:48.339Z,15.01
2016-09-29T02:18:28.894Z,14.95
2016-09-29T02:19:09.435Z,14.94
2016-09-29T02:19:49.985Z,14.92
2016-09-29T02:20:30.524Z,14.94
2016-09-29T02:21:11.071Z,14.95
2016-09-29T02:21:51.619Z,14.91
2016-09-29T02:22:32.163Z,14.99
2016-09-29T02:23:12.708Z,14.95
2016-09-29T02:23:53.252Z,14.92
2016-09-29T02:24:33.785Z,14.94
2016-09-29T02:25:14.313Z,14.99
2016-09-29T02:25:54.861Z,14.95
2016-09-29T02:26:35.412Z,14.98
2016-09-29T02:27:15.942Z,14.95
2016-09-29T02:27:56.481Z,14.98
2016-09-29T02:28:37.022Z,14.98
2016-09-29T02:29:17.566Z,14.96
2016-09-29T02:29:58.111Z,14.96
2016-09-29T02:30:38.644Z,14.89
2016-09-29T02:31:19.184Z,14.96
2016-09-29T02:31:59.718Z,14.96
2016-09-29T02:32:40.273Z,15.01
2016-09-29T02:33:20.820Z,14.95
2016-09-29T02:34:01.357Z,14.92
2016-09-29T02:34:41.901Z,14.86
2016-09-29T02:35:22.447Z,14.92
2016-09-29T02:36:02.998Z,14.89
2016-09-29T02:36:43.528Z,14.81
2016-09-29T02:37:24.058Z,14.89
2016-09-29T02:38:04.591Z,14.84
2016-09-29T02:38:45.137Z,14.88
2016-09-29T02:39:25.681Z,14.81
2016-09-29T02:40:06.223Z,14.81
2016-09-29T02:40:46.766Z,14.88
2016-09-29T02:41:27.313Z,14.86
2016-09-29T02:42:07.865Z,14.86
2016-09-29T02:42:48.417Z,14.75
2016-09-29T02:43:28.949Z,14.75
2016-09-29T02:44:09.483Z,14.77
2016-09-29T02:44:50.020Z,14.77
2016-09-29T02:45:30.565Z,14.75
2016-09-29T02:46:11.118Z,14.81
2016-09-29T02:46:51.652Z,14.8
2016-09-29T02:47:32.192Z,14.77
2016-09-29T02:48:12.734Z,14.75
2016-09-29T02:48:53.272Z,14.8
2016-09-29T02:49:33.814Z,14.81
2016-09-29T02:50:14.357Z,14.83
2016-09-29T02:50:54.899Z,14.88
2016-09-29T02:51:35.445Z,14.84
2016-09-29T02:52:15.985Z,14.84
2016-09-29T02:52:56.528Z,14.84
2016-09-29T02:53:37.077Z,14.88
2016-09-29T02:54:17.608Z,14.88
2016-09-29T02:54:58.154Z,14.8
2016-09-29T02:55:38.696Z,14.89
2016-09-29T02:56:19.257Z,14.88
2016-09-29T02:56:59.792Z,14.91
2016-09-29T02:57:40.324Z,14.91
2016-09-29T02:58:20.883Z,14.94
2016-09-29T02:59:01.427Z,14.86
2016-09-29T02:59:41.973Z,14.83
2016-09-29T03:00:22.512Z,14.91
2016-09-29T03:01:03.058Z,14.84
2016-09-29T03:01:43.606Z,14.8
2016-09-29T03:02:24.146Z,14.88
2016-09-29T03:03:04.676Z,14.88
2016-09-29T03:03:45.217Z,14.81
2016-09-29T03:04:25.748Z,14.78
2016-09-29T03:05:06.282Z,14.78
2016-09-29T03:05:46.824Z,14.8
2016-09-29T03:06:27.367Z,14.78
2016-09-29T03:07:07.912Z,14.8
2016-09-29T03:07:48.460Z,14.73
2016-09-29T03:08:28.992Z,14.75
2016-09-29T03:09:09.523Z,14.77
2016-09-29T03:09:50.056Z,14.75
2016-09-29T03:10:30.592Z,14.78
2016-09-29T03:11:11.144Z,14.8
2016-09-29T03:11:51.704Z,14.75
2016-09-29T03:12:32.240Z,14.77
2016-09-29T03:13:12.786Z,14.77
2016-09-29T03:13:53.329Z,14.8
2016-09-29T03:14:33.876Z,14.8
2016-09-29T03:15:14.422Z,14.78
2016-09-29T03:15:54.962Z,14.7
2016-09-29T03:16:35.504Z,14.81
2016-09-29T03:17:16.058Z,14.86
2016-09-29T03:17:56.578Z,14.88
2016-09-29T03:18:37.121Z,14.81
2016-09-29T03:19:17.659Z,14.91
2016-09-29T03:19:58.201Z,14.89
2016-09-29T03:20:38.744Z,14.88
2016-09-29T03:21:19.293Z,14.83
2016-09-29T03:21:59.841Z,14.83
2016-09-29T03:22:40.387Z,14.89
2016-09-29T03:23:20.929Z,14.83
2016-09-29T03:24:01.474Z,14.96
2016-09-29T03:24:42.020Z,14.95
2016-09-29T03:25:22.573Z,14.95
2016-09-29T03:26:03.090Z,14.92
2016-09-29T03:26:43.618Z,14.92
2016-09-29T03:27:24.159Z,14.94
2016-09-29T03:28:04.703Z,14.94
2016-09-29T03:28:45.253Z,14.95
2016-09-29T03:29:25.791Z,14.96
2016-09-29T03:30:06.334Z,14.95
2016-09-29T03:30:46.875Z,14.95
2016-09-29T03:31:27.407Z,15.03
2016-09-29T03:32:07.946Z,14.95
2016-09-29T03:32:48.491Z,14.96
2016-09-29T03:33:29.033Z,15.03
2016-09-29T03:34:09.574Z,14.99
2016-09-29T03:34:50.116Z,15.02
2016-09-29T03:35:30.662Z,15.03
2016-09-29T03:36:11.208Z,15.01
2016-09-29T03:36:51.756Z,15.06
2016-09-29T03:37:32.297Z,14.95
2016-09-29T03:38:12.837Z,14.91
2016-09-29T03:38:53.371Z,15.07
2016-09-29T03:39:33.906Z,14.96
2016-09-29T03:40:14.451Z,14.95
2016-09-29T03:40:54.984Z,14.94
2016-09-29T03:41:35.532Z,14.96
2016-09-29T03:42:16.066Z,14.95
2016-09-29T03:42:56.621Z,14.99
2016-09-29T03:43:37.162Z,14.98
2016-09-29T03:44:17.705Z,14.98
2016-09-29T03:44:58.250Z,14.96
2016-09-29T03:45:38.799Z,14.94
2016-09-29T03:46:19.349Z,14.99
2016-09-29T03:46:59.891Z,14.95
2016-09-29T03:47:40.435Z,14.99
2016-09-29T03:48:20.971Z,14.98
2016-09-29T03:49:01.498Z,14.95
2016-09-29T03:49:42.040Z,14.98
2016-09-29T03:50:22.583Z,14.98
2016-09-29T03:51:03.135Z,14.84
2016-09-29T03:51:43.680Z,14.83
2016-09-29T03:52:24.241Z,14.83
2016-09-29T03:53:04.784Z,14.81
2016-09-29T03:53:45.333Z,14.78
2016-09-29T03:54:25.881Z,14.78
2016-09-29T03:55:06.423Z,14.77
2016-09-29T03:55:46.955Z,14.83
2016-09-29T03:56:27.490Z,14.7
2016-09-29T03:57:08.026Z,14.78
2016-09-29T03:57:48.570Z,14.77
2016-09-29T03:58:29.119Z,14.72
2016-09-29T03:59:09.649Z,14.78
2016-09-29T03:59:50.198Z,14.7
2016-09-29T04:00:30.738Z,14.69
2016-09-29T04:01:11.286Z,14.7
2016-09-29T04:01:51.821Z,14.73
2016-09-29T04:02:32.365Z,14.77
2016-09-29T04:03:12.900Z,14.77
2016-09-29T04:03:53.446Z,14.69
2016-09-29T04:04:33.977Z,14.73
2016-09-29T04:05:14.510Z,14.75
2016-09-29T04:05:55.055Z,14.72
2016-09-29T04:06:35.649Z,14.8
2016-09-29T04:07:16.182Z,14.81
2016-09-29T04:07:56.724Z,14.73
2016-09-29T04:08:37.267Z,14.77
2016-09-29T04:09:17.810Z,14.8
2016-09-29T04:09:58.353Z,14.78
2016-09-29T04:10:38.902Z,14.83
2016-09-29T04:11:19.448Z,14.78
2016-09-29T04:12:00.004Z,14.77
2016-09-29T04:12:40.548Z,14.8
2016-09-29T04:13:21.096Z,14.75
2016-09-29T04:14:01.649Z,14.78
2016-09-29T04:14:42.203Z,14.7
2016-09-29T04:15:22.729Z,14.69
2016-09-29T04:16:03.282Z,14.72
2016-09-29T04:16:43.821Z,14.77
2016-09-29T04:17:24.373Z,14.7
2016-09-29T04:18:04.893Z,14.75
2016-09-29T04:18:45.440Z,14.72
2016-09-29T04:19:25.986Z,14.73
2016-09-29T04:20:06.525Z,14.77
2016-09-29T04:20:47.066Z,14.68
2016-09-29T04:21:27.607Z,14.72
2016-09-29T04:22:08.150Z,14.61
2016-09-29T04:22:48.702Z,14.69
2016-09-29T04:23:29.254Z,14.62
2016-09-29T04:24:09.845Z,14.57
2016-09-29T04:24:50.641Z,14.61
2016-09-29T04:25:31.390Z,14.61
2016-09-29T04:26:12.058Z,14.61
2016-09-29T04:26:52.608Z,14.6
2016-09-29T04:27:33.153Z,14.64
2016-09-29T04:28:13.699Z,14.58
2016-09-29T04:28:54.238Z,14.68
2016-09-29T04:29:34.773Z,14.61
2016-09-29T04:30:15.319Z,14.54
2016-09-29T04:30:55.866Z,14.57
2016-09-29T04:31:36.406Z,14.52
2016-09-29T04:32:16.953Z,14.5
2016-09-29T04:32:57.503Z,14.42
2016-09-29T04:33:38.048Z,14.52
2016-09-29T04:34:18.593Z,14.43
2016-09-29T04:34:59.136Z,14.46
2016-09-29T04:35:39.687Z,14.43
2016-09-29T04:36:20.224Z,14.42
2016-09-29T04:37:00.768Z,14.46
2016-09-29T04:37:41.315Z,14.47
2016-09-29T04:38:21.906Z,14.57
2016-09-29T04:39:02.448Z,14.4
2016-09-29T04:39:42.990Z,14.51
2016-09-29T04:40:23.545Z,14.55
2016-09-29T04:41:04.096Z,14.52
2016-09-29T04:41:44.642Z,14.57
2016-09-29T04:42:25.200Z,14.47
2016-09-29T04:43:05.777Z,14.57
2016-09-29T04:43:46.315Z,14.43
2016-09-29T04:44:26.870Z,14.47
2016-09-29T04:45:07.415Z,14.45
2016-09-29T04:45:47.966Z,14.43
2016-09-29T04:46:28.517Z,14.45
2016-09-29T04:47:09.065Z,14.46
2016-09-29T04:47:49.617Z,14.46
2016-09-29T04:48:30.170Z,14.45
2016-09-29T04:49:10.707Z,14.46
2016-09-29T04:49:51.270Z,14.36
2016-09-29T04:50:31.823Z,14.43
2016-09-29T04:51:12.371Z,14.47
2016-09-29T04:52:47.792Z,14.42
2016-09-29T04:53:28.318Z,14.5
2016-09-29T04:54:08.853Z,14.39
2016-09-29T04:54:49.403Z,14.39
2016-09-29T04:55:29.938Z,14.42
2016-09-29T04:56:10.481Z,14.36
2016-09-29T04:56:51.016Z,14.39
2016-09-29T04:57:31.561Z,14.35
2016-09-29T04:58:12.105Z,14.35
2016-09-29T04:58:52.652Z,14.45
2016-09-29T04:59:33.199Z,14.4
2016-09-29T05:00:13.753Z,14.39
2016-09-29T05:00:54.295Z,14.4
2016-09-29T05:01:34.829Z,14.35
2016-09-29T05:02:15.372Z,14.39
2016-09-29T05:02:55.896Z,14.39
2016-09-29T05:03:36.425Z,14.37
2016-09-29T05:04:16.967Z,14.39
2016-09-29T05:04:57.510Z,14.37
2016-09-29T05:05:38.087Z,14.36
2016-09-29T05:06:18.609Z,14.36
2016-09-29T05:06:59.156Z,14.37
2016-09-29T05:07:39.705Z,14.35
2016-09-29T05:08:20.254Z,14.32
2016-09-29T05:09:00.794Z,14.37
2016-09-29T05:09:41.336Z,14.35
2016-09-29T05:10:21.883Z,14.32
2016-09-29T05:11:02.423Z,14.29
2016-09-29T05:11:42.949Z,14.28
2016-09-29T05:12:23.492Z,14.32
2016-09-29T05:13:04.029Z,14.28
2016-09-29T05:13:44.576Z,14.22
2016-09-29T05:14:25.114Z,14.37
2016-09-29T05:15:05.664Z,14.27
2016-09-29T05:15:46.201Z,14.32
2016-09-29T05:16:26.748Z,14.35
2016-09-29T05:17:07.293Z,14.32
2016-09-29T05:17:47.825Z,14.22
2016-09-29T05:18:28.361Z,14.27
2016-09-29T05:19:08.903Z,14.2
2016-09-29T05:19:49.447Z,14.21
2016-09-29T05:20:29.988Z,14.33
2016-09-29T05:21:10.532Z,14.22
2016-09-29T05:21:51.074Z,14.22
2016-09-29T05:22:31.623Z,14.27
2016-09-29T05:23:12.193Z,14.24
2016-09-29T05:23:52.727Z,14.21
2016-09-29T05:24:33.319Z,14.22
2016-09-29T05:25:13.875Z,14.22
2016-09-29T05:25:54.420Z,14.22
2016-09-29T05:26:34.959Z,14.22
2016-09-29T05:27:15.492Z,14.25
2016-09-29T05:27:56.042Z,14.25
2016-09-29T05:28:36.583Z,14.22
2016-09-29T05:29:17.154Z,14.24
2016-09-29T05:29:57.686Z,14.18
2016-09-29T05:30:38.240Z,14.22
2016-09-29T05:31:18.773Z,14.25
2016-09-29T05:31:59.306Z,14.21
2016-09-29T05:32:39.832Z,14.25
2016-09-29T05:33:20.370Z,14.22
2016-09-29T05:34:00.911Z,14.22
2016-09-29T05:34:41.462Z,14.22
2016-09-29T05:35:21.999Z,14.22
2016-09-29T05:36:02.553Z,14.22
2016-09-29T05:36:43.110Z,14.2
2016-09-29T05:37:23.633Z,14.25
2016-09-29T05:38:04.179Z,14.25
2016-09-29T05:38:44.695Z,14.21
2016-09-29T05:39:25.243Z,14.21
2016-09-29T05:40:05.778Z,14.25
2016-09-29T05:40:46.303Z,14.24
2016-09-29T05:41:26.853Z,14.25
2016-09-29T05:42:07.405Z,14.17
2016-09-29T05:42:48.285Z,14.21
2016-09-29T05:43:28.817Z,14.22
2016-09-29T05:44:09.380Z,14.22
2016-09-29T05:44:49.905Z,14.18
2016-09-29T05:45:30.451Z,14.21
2016-09-29T05:46:11.000Z,14.24
2016-09-29T05:46:51.545Z,14.21
2016-09-29T05:47:32.102Z,14.17
2016-09-29T05:48:12.644Z,14.2
2016-09-29T05:48:53.187Z,14.25
2016-09-29T05:49:33.728Z,14.22
2016-09-29T05:50:14.280Z,14.22
2016-09-29T05:50:54.826Z,14.21
2016-09-29T05:51:35.366Z,14.24
2016-09-29T05:52:15.914Z,14.22
2016-09-29T05:52:56.447Z,14.21
2016-09-29T05:53:36.976Z,14.15
2016-09-29T05:54:17.522Z,14.2
2016-09-29T05:54:58.046Z,14.24
2016-09-29T05:55:38.590Z,14.24
2016-09-29T05:56:19.135Z,14.2
2016-09-29T05:56:59.687Z,14.21
2016-09-29T05:57:40.232Z,14.17
2016-09-29T05:58:20.769Z,14.17
2016-09-29T05:59:01.304Z,14.27
2016-09-29T05:59:41.849Z,14.14
2016-09-29T06:00:22.393Z,14.24
2016-09-29T06:01:02.931Z,14.27
2016-09-29T06:01:43.479Z,14.25
2016-09-29T06:02:24.020Z,14.12
2016-09-29T06:03:04.569Z,14.24
2016-09-29T06:03:45.119Z,14.14
2016-09-29T06:04:25.671Z,14.22
2016-09-29T06:05:06.233Z,14.2
2016-09-29T06:05:46.779Z,14.24
2016-09-29T06:06:27.324Z,14.17
2016-09-29T06:07:07.866Z,14.2
2016-09-29T06:07:48.415Z,14.25
2016-09-29T06:08:28.960Z,14.21
2016-09-29T06:09:09.505Z,14.21
2016-09-29T06:09:50.055Z,14.21
2016-09-29T06:10:30.603Z,14.21
2016-09-29T06:11:11.149Z,14.18
2016-09-29T06:11:51.691Z,14.33
2016-09-29T06:12:32.220Z,14.24
2016-09-29T06:13:12.764Z,14.33
2016-09-29T06:13:53.307Z,14.29
2016-09-29T06:14:33.857Z,14.33
2016-09-29T06:15:14.374Z,14.37
2016-09-29T06:15:54.932Z,14.43
2016-09-29T06:16:35.486Z,14.45
2016-09-29T06:17:16.032Z,14.45
2016-09-29T06:17:56.590Z,14.46
2016-09-29T06:18:37.137Z,14.39
2016-09-29T06:19:17.677Z,14.46
2016-09-29T06:19:58.238Z,14.46
2016-09-29T06:20:38.784Z,14.54
2016-09-29T06:21:19.324Z,14.58
2016-09-29T06:21:59.870Z,14.5
2016-09-29T06:22:40.422Z,14.55
2016-09-29T06:23:20.959Z,14.6
2016-09-29T06:24:01.496Z,14.65
2016-09-29T06:24:42.027Z,14.58
2016-09-29T06:25:22.543Z,14.62
2016-09-29T06:26:03.097Z,14.69
2016-09-29T06:26:43.667Z,14.64
2016-09-29T06:27:24.195Z,14.62
2016-09-29T06:28:04.748Z,14.69
2016-09-29T06:28:45.295Z,14.69
2016-09-29T06:29:25.843Z,14.77
2016-09-29T06:30:06.396Z,14.78
2016-09-29T06:30:46.951Z,14.73
2016-09-29T06:31:27.506Z,14.77
2016-09-29T06:32:08.050Z,14.78
2016-09-29T06:32:48.606Z,14.75
2016-09-29T06:33:29.142Z,14.77
2016-09-29T06:34:09.688Z,14.84
2016-09-29T06:34:50.234Z,14.89
2016-09-29T06:35:30.774Z,14.8
2016-09-29T06:36:11.324Z,14.81
2016-09-29T06:36:51.879Z,14.98
2016-09-29T06:37:32.429Z,14.96
2016-09-29T06:38:12.968Z,14.92
2016-09-29T06:38:53.513Z,14.94
2016-09-29T06:39:34.069Z,14.96
2016-09-29T06:40:14.607Z,14.98
2016-09-29T06:40:55.144Z,14.95
2016-09-29T06:41:35.682Z,14.99
2016-09-29T06:42:16.222Z,15.07
2016-09-29T06:42:56.770Z,15.03
2016-09-29T06:43:37.317Z,15.03
2016-09-29T06:44:17.864Z,15.06
2016-09-29T06:44:58.436Z,15.03
2016-09-29T06:45:38.968Z,15.09
2016-09-29T06:46:19.545Z,15.13
2016-09-29T06:47:00.092Z,15.16
2016-09-29T06:47:40.636Z,15.14
2016-09-29T06:48:21.189Z,15.1
2016-09-29T06:49:01.721Z,15.13
2016-09-29T06:49:42.269Z,15.17
2016-09-29T06:50:22.813Z,15.21
2016-09-29T06:51:03.354Z,15.27
2016-09-29T06:51:43.901Z,15.2
2016-09-29T06:52:24.439Z,15.2
2016-09-29T06:53:04.982Z,15.21
2016-09-29T06:53:45.517Z,15.27
2016-09-29T06:54:26.044Z,15.32
2016-09-29T06:55:06.587Z,15.29
2016-09-29T06:55:47.138Z,15.36
2016-09-29T06:56:27.690Z,15.35
2016-09-29T06:57:08.228Z,15.41
2016-09-29T06:57:48.785Z,15.29
2016-09-29T06:58:29.331Z,15.35
2016-09-29T06:59:09.880Z,15.41
2016-09-29T06:59:50.412Z,15.44
2016-09-29T07:00:30.961Z,15.5
2016-09-29T07:01:11.509Z,15.49
2016-09-29T07:01:52.057Z,15.51
2016-09-29T07:02:32.606Z,15.53
2016-09-29T07:03:13.141Z,15.5
2016-09-29T07:03:53.687Z,15.56
2016-09-29T07:04:34.222Z,15.64
2016-09-29T07:05:14.767Z,15.6
2016-09-29T07:05:55.308Z,15.57
2016-09-29T07:06:35.856Z,15.56
2016-09-29T07:07:16.394Z,15.72
2016-09-29T07:07:56.941Z,15.68
2016-09-29T07:08:37.485Z,15.68
2016-09-29T07:09:18.032Z,15.76
2016-09-29T07:09:58.577Z,15.78
2016-09-29T07:10:39.120Z,15.76
2016-09-29T07:11:19.671Z,15.76
2016-09-29T07:12:00.216Z,15.86
2016-09-29T07:12:40.761Z,15.87
2016-09-29T07:13:21.304Z,15.87
2016-09-29T07:14:01.848Z,15.89
2016-09-29T07:14:42.382Z,15.87
2016-09-29T07:15:22.933Z,15.93
2016-09-29T07:16:03.477Z,16.01
2016-09-29T07:16:44.012Z,16.05
2016-09-29T07:17:24.553Z,16
2016-09-29T07:18:05.102Z,15.97
2016-09-29T07:18:45.654Z,16.05
2016-09-29T07:19:26.200Z,16.01
2016-09-29T07:20:06.750Z,16.08
2016-09-29T07:20:47.299Z,16.02
2016-09-29T07:21:27.851Z,16.05
2016-09-29T07:22:08.416Z,16.05
2016-09-29T07:22:48.960Z,16.17
2016-09-29T07:23:29.506Z,16.14
2016-09-29T07:24:10.055Z,16.15
2016-09-29T07:24:50.607Z,16.27
2016-09-29T07:25:31.157Z,16.21
2016-09-29T07:26:11.706Z,16.27
2016-09-29T07:26:52.265Z,16.3
2016-09-29T07:27:32.807Z,16.31
2016-09-29T07:28:13.358Z,16.38
2016-09-29T07:28:53.908Z,16.45
2016-09-29T07:29:34.465Z,16.45
2016-09-29T07:30:15.029Z,16.42
2016-09-29T07:30:55.578Z,16.46
2016-09-29T07:31:36.118Z,16.58
2016-09-29T07:32:16.679Z,16.52
2016-09-29T07:32:57.219Z,16.58
2016-09-29T07:33:37.773Z,16.5
2016-09-29T07:34:18.318Z,16.56
2016-09-29T07:34:58.869Z,16.67
2016-09-29T07:35:39.421Z,16.71
2016-09-29T07:36:19.972Z,16.66
2016-09-29T07:37:00.524Z,16.73
2016-09-29T07:37:41.079Z,16.79
2016-09-29T07:38:21.628Z,16.76
2016-09-29T07:39:02.177Z,16.86
2016-09-29T07:39:42.727Z,16.86
2016-09-29T07:40:23.276Z,16.89
2016-09-29T07:41:03.822Z,16.89
2016-09-29T07:41:44.364Z,17.01
2016-09-29T07:42:24.911Z,16.98
2016-09-29T07:43:05.461Z,16.98
2016-09-29T07:43:46.006Z,17.04
2016-09-29T07:44:26.543Z,17.06
2016-09-29T07:45:07.067Z,17.15
2016-09-29T07:45:47.616Z,17.23
2016-09-29T07:46:28.161Z,17.25
2016-09-29T07:47:08.698Z,17.19
2016-09-29T07:47:49.248Z,17.23
2016-09-29T07:48:29.798Z,17.28
2016-09-29T07:49:10.348Z,17.31
2016-09-29T07:49:50.892Z,17.34
2016-09-29T07:50:31.441Z,17.41
2016-09-29T07:51:11.985Z,17.46
2016-09-29T07:51:52.540Z,17.54
2016-09-29T07:52:33.087Z,17.52
2016-09-29T07:53:13.633Z,17.56
2016-09-29T07:53:54.185Z,17.59
2016-09-29T07:54:34.728Z,17.71
2016-09-29T07:55:15.273Z,17.68
2016-09-29T07:55:55.814Z,17.78
2016-09-29T07:56:36.370Z,17.74
2016-09-29T07:57:16.919Z,17.79
2016-09-29T07:57:57.476Z,17.78
2016-09-29T07:58:38.024Z,17.89
2016-09-29T07:59:18.571Z,17.93
2016-09-29T07:59:59.130Z,17.95
2016-09-29T08:00:39.676Z,17.99
2016-09-29T08:01:20.229Z,17.99
2016-09-29T08:02:00.781Z,17.93
2016-09-29T08:02:41.331Z,18.03
2016-09-29T08:03:21.875Z,18.08
2016-09-29T08:04:02.418Z,18.08
2016-09-29T08:04:42.963Z,18.15
2016-09-29T08:05:23.504Z,18.2
2016-09-29T08:06:04.047Z,18.18
2016-09-29T08:06:44.594Z,18.23
2016-09-29T08:07:25.145Z,18.27
2016-09-29T08:08:05.689Z,18.36
2016-09-29T08:08:46.227Z,18.36
2016-09-29T08:09:26.779Z,18.39
2016-09-29T08:10:07.325Z,18.45
2016-09-29T08:10:47.870Z,18.5
2016-09-29T08:11:28.415Z,18.41
2016-09-29T08:12:08.966Z,18.51
2016-09-29T08:12:49.515Z,18.55
2016-09-29T08:13:30.068Z,18.63
2016-09-29T08:14:10.631Z,18.69
2016-09-29T08:14:51.179Z,18.65
2016-09-29T08:15:31.723Z,18.66
2016-09-29T08:16:12.276Z,18.7
2016-09-29T08:16:52.824Z,18.78
2016-09-29T08:17:33.383Z,18.87
2016-09-29T08:18:13.934Z,18.88
2016-09-29T08:18:54.478Z,18.95
2016-09-29T08:19:35.033Z,19
2016-09-29T08:20:15.578Z,19.02
2016-09-29T08:20:56.128Z,19.16
2016-09-29T08:21:36.681Z,19.16
2016-09-29T08:22:17.231Z,19.23
2016-09-29T08:22:57.783Z,19.26
2016-09-29T08:23:38.331Z,19.23
2016-09-29T08:24:18.885Z,19.36
2016-09-29T08:24:59.436Z,19.29
2016-09-29T08:25:39.985Z,19.32
2016-09-29T08:26:20.521Z,19.43
2016-09-29T08:27:01.075Z,19.43
2016-09-29T08:27:41.619Z,19.51
2016-09-29T08:28:22.166Z,19.62
2016-09-29T08:29:02.711Z,19.58
2016-09-29T08:29:43.259Z,19.61
2016-09-29T08:30:23.806Z,19.66
2016-09-29T08:31:04.356Z,19.77
2016-09-29T08:31:44.901Z,19.69
2016-09-29T08:32:25.450Z,19.74
2016-09-29T08:33:05.995Z,19.78
2016-09-29T08:33:46.539Z,19.76
2016-09-29T08:34:27.076Z,19.86
2016-09-29T08:35:07.626Z,19.84
2016-09-29T08:35:48.175Z,19.96
2016-09-29T08:36:28.709Z,19.96
2016-09-29T08:37:09.268Z,20.03
2016-09-29T08:37:49.810Z,20.02
2016-09-29T08:38:30.360Z,20.16
2016-09-29T08:39:10.908Z,20.14
2016-09-29T08:39:51.454Z,20.2
2016-09-29T08:40:32.001Z,20.18
2016-09-29T08:41:12.550Z,20.17
2016-09-29T08:41:53.104Z,20.2
2016-09-29T08:42:33.649Z,20.28
2016-09-29T08:43:14.202Z,20.39
2016-09-29T08:43:54.745Z,20.42
2016-09-29T08:44:35.308Z,20.52
2016-09-29T08:45:15.858Z,20.59